Latest Weather Observations for Halls Creek

IDD60801

Issued at 5:01 pm CST Friday 4 September 2015 (issued every 30 minutes, with the page automatically refreshed every 10 minutes)

About weather observations | Map of weather stations | Latest weather observations for NT | Other Formats
Station Details ID: 002012 Name: HALLS CREEK AIRPORT Lat: -18.23 Lon: 127.66 Height: 422.0 m
Data from the previous 72 hours. | See also: Recent months at Halls Creek
Date/Time
CST
Temp
°C
App
Temp
°C
Dew
Point
Rel
Hum
%
Delta-T
°C
Wind Press
QNH
hPa
Press
MSL
hPa
Rain
since 9 am
mm
Dir
 
Spd
km/h
Gust
km/h
Spd
kts
Gust
kts
04/05:00pm 33.7 30.3 -2.3 10 17.3 NNE 6 15 3 8 1016.3 - 0.0
04/04:30pm 33.9 30.4 -2.7 9 17.5 SE 6 17 3 9 1016.4 1013.9 0.0
04/04:00pm 33.5 30.6 -1.0 11 16.9 E 4 13 2 7 1016.5 - 0.0
04/03:30pm 33.9 30.5 -1.7 10 17.3 E 6 15 3 8 1016.6 - 0.0
04/03:00pm 34.1 31.3 -0.2 11 17.1 N 4 11 2 6 1017.0 - 0.0
04/02:30pm 33.2 29.8 -0.9 11 16.7 ESE 7 19 4 10 1017.4 - 0.0
04/02:00pm 32.9 29.5 -0.4 12 16.4 ESE 7 19 4 10 1017.9 - 0.0
04/01:30pm 33.0 29.8 0.8 13 16.2 ENE 7 19 4 10 1018.4 1015.9 0.0
04/01:00pm 31.7 28.3 -0.9 12 15.8 ENE 7 22 4 12 1018.8 - 0.0
04/12:30pm 31.4 27.6 -0.8 12 15.6 E 9 32 5 17 1019.3 - 0.0
04/12:00pm 30.2 26.4 -0.9 13 14.9 ENE 9 19 5 10 1019.8 - 0.0
04/11:30am 29.4 25.6 -0.7 14 14.4 E 9 22 5 12 1020.3 - 0.0
04/11:00am 28.2 23.9 -1.6 14 13.9 ENE 11 22 6 12 1020.5 - 0.0
04/10:30am 27.0 22.7 -1.5 15 13.2 E 11 20 6 11 1020.7 1018.2 0.0
04/10:00am 25.4 21.1 -1.5 17 12.3 E 11 19 6 10 1020.8 - 0.0
04/09:30am 24.4 20.9 -1.3 18 11.7 E 7 17 4 9 1020.7 - 0.0
04/09:00am 22.9 18.2 -1.7 19 11.0 ESE 13 20 7 11 1020.5 - 0.0
04/08:30am 21.8 17.5 -1.7 20 10.4 ESE 11 17 6 9 1020.2 - 0.0
04/08:00am 19.4 16.6 -0.4 26 8.8 NNE 4 7 2 4 1019.9 - 0.0
04/07:30am 18.9 15.7 -0.6 27 8.6 ESE 6 11 3 6 1019.5 1017.0 0.0
04/07:00am 18.3 14.8 -1.0 27 8.4 SE 7 11 4 6 1019.2 - 0.0
04/06:30am 18.5 15.0 -1.0 26 8.5 ESE 7 11 4 6 1018.8 - 0.0
04/06:00am 18.1 15.0 0.1 29 8.0 SE 6 7 3 4 1018.5 - 0.0
04/05:30am 18.3 15.7 0.8 31 7.9 ESE 4 7 2 4 1018.2 - 0.0
04/05:00am 19.1 16.1 0.6 29 8.4 ESE 6 9 3 5 1018.1 - 0.0
04/04:30am 20.1 17.0 -0.1 26 9.1 ESE 6 7 3 4 1018.1 1015.6 0.0
04/04:00am 19.5 17.1 2.0 31 8.2 E 4 7 2 4 1018.1 - 0.0
04/03:30am 20.8 18.3 1.6 28 9.0 E 4 6 2 3 1018.1 - 0.0
04/03:00am 21.0 18.5 1.3 27 9.2 E 4 7 2 4 1018.2 - 0.0
04/02:30am 20.8 18.2 0.9 26 9.2 E 4 6 2 3 1018.2 - 0.0
04/02:00am 20.3 18.0 2.7 31 8.4 E 4 6 2 3 1018.5 - 0.0
04/01:30am 20.6 18.4 1.2 27 9.0 SE 2 4 1 2 1018.7 1016.2 0.0
04/01:00am 21.1 18.6 1.8 28 9.1 E 4 7 2 4 1019.0 - 0.0
04/12:30am 20.9 19.0 3.1 31 8.6 E 2 6 1 3 1019.2 - 0.0
04/12:00am 21.7 19.6 1.9 27 9.4 SSE 2 6 1 3 1019.3 - 0.0
 
Date/Time
CST
Temp
°C
App
Temp
°C
Dew
Point
Rel
Hum
%
Delta-T
°C
Wind Press
QNH
hPa
Press
MSL
hPa
Rain
since 9 am
mm
Dir
 
Spd
km/h
Gust
km/h
Spd
kts
Gust
kts
03/11:30pm 22.0 19.8 1.1 25 9.8 S 2 7 1 4 1019.3 - 0.0
03/11:00pm 22.6 20.6 2.5 26 9.7 E 2 4 1 2 1019.3 - 0.0
03/10:30pm 23.7 22.0 1.9 24 10.5 CALM 0 2 0 1 1019.2 1016.7 0.0
03/10:00pm 25.2 22.5 0.2 19 11.8 NW 4 6 2 3 1019.2 - 0.0
03/09:30pm 25.3 23.2 1.9 21 11.4 N 2 4 1 2 1018.9 - 0.0
03/09:00pm 25.4 23.0 -0.2 18 12.0 WNW 2 6 1 3 1018.6 - 0.0
03/08:30pm 25.7 23.8 3.0 23 11.3 SSE 2 2 1 1 1018.3 - 0.0
03/08:00pm 26.4 24.6 3.7 23 11.5 SSE 2 2 1 1 1017.9 - 0.0
03/07:30pm 27.3 25.6 4.1 22 11.9 E 2 4 1 2 1017.6 1015.0 0.0
03/07:00pm 28.9 27.3 4.3 21 12.8 E 2 4 1 2 1017.2 - 0.0
03/06:30pm 30.3 27.5 -0.5 13 14.9 SE 4 6 2 3 1016.9 - 0.0
03/06:00pm 31.9 29.7 1.0 14 15.5 NNE 2 4 1 2 1016.6 - 0.0
03/05:30pm 32.1 29.2 -1.1 12 16.1 E 4 11 2 6 1016.5 - 0.0
03/05:00pm 32.2 28.9 -1.3 11 16.2 E 6 13 3 7 1016.4 - 0.0
03/04:30pm 32.5 29.0 -2.9 10 16.7 NNE 6 13 3 7 1016.4 1013.9 0.0
03/04:00pm 33.0 29.9 -0.1 12 16.4 E 6 19 3 10 1016.5 - 0.0
03/03:30pm 32.6 29.3 -1.2 11 16.4 NE 6 20 3 11 1016.7 - 0.0
03/03:00pm 31.9 28.9 -1.7 11 16.1 NE 4 19 2 10 1017.0 - 0.0
03/02:30pm 32.0 28.6 -2.4 11 16.3 NNE 6 17 3 9 1017.6 - 0.0
03/02:00pm 31.7 28.1 -2.3 11 16.1 ENE 7 22 4 12 1018.0 - 0.0
03/01:30pm 30.9 27.4 -1.7 12 15.5 ENE 7 19 4 10 1018.4 1015.9 0.0
03/01:00pm 30.5 26.4 -3.4 11 15.6 ENE 9 19 5 10 1019.0 - 0.0
03/12:30pm 29.8 25.7 -3.4 11 15.2 ENE 9 26 5 14 1019.6 - 0.0
03/12:00pm 29.2 24.7 -3.6 11 14.9 E 11 30 6 16 1020.2 - 0.0
03/11:30am 28.1 24.0 -3.3 12 14.2 E 9 20 5 11 1020.5 - 0.0
03/11:00am 27.1 22.9 -4.1 12 13.8 ESE 9 26 5 14 1020.9 - 0.0
03/10:30am 25.6 20.6 -4.3 13 13.0 E 13 24 7 13 1021.2 1018.7 0.0
03/10:00am 24.7 19.7 -4.2 14 12.5 E 13 22 7 12 1021.1 - 0.0
03/09:30am 23.4 18.0 -4.7 15 11.9 E 15 26 8 14 1020.8 - 0.0
03/09:00am 22.3 17.3 -4.6 16 11.3 E 13 26 7 14 1020.7 - 0.0
03/08:30am 21.0 17.7 -1.0 23 9.8 E 6 11 3 6 1020.5 - 0.0
03/08:00am 19.2 16.5 0.4 28 8.5 E 4 9 2 5 1020.3 - 0.0
03/07:30am 17.2 14.4 -0.5 30 7.7 NE 4 6 2 3 1019.8 1017.4 0.0
03/07:00am 17.0 14.3 0.3 32 7.4 E 4 6 2 3 1019.1 - 0.0
03/06:30am 17.2 15.1 1.6 35 7.1 E 2 6 1 3 1018.6 - 0.0
03/06:00am 18.0 15.3 0.3 30 7.9 E 4 7 2 4 1018.1 - 0.0
03/05:30am 18.0 15.4 0.7 31 7.8 ENE 4 6 2 3 1018.0 - 0.0
03/05:00am 17.3 15.0 2.7 37 6.8 ESE 4 4 2 2 1017.8 - 0.0
03/04:30am 17.7 15.2 1.8 34 7.3 SSE 4 7 2 4 1017.8 1015.3 0.0
03/04:00am 18.6 15.7 1.7 32 7.8 SSE 6 7 3 4 1017.9 - 0.0
03/03:30am 19.6 16.7 1.5 30 8.4 SSE 6 9 3 5 1017.9 - 0.0
03/03:00am 20.1 17.2 1.7 29 8.6 S 6 9 3 5 1017.8 - 0.0
03/02:30am 21.6 18.3 -0.1 23 9.9 SSE 7 17 4 9 1017.9 - 0.0
03/02:00am 22.2 18.3 -1.6 20 10.6 SE 9 20 5 11 1017.9 - 0.0
03/01:30am 22.4 18.6 -0.8 21 10.5 SSE 9 15 5 8 1018.2 1015.7 0.0
03/01:00am 22.7 18.9 -0.5 21 10.6 SE 9 15 5 8 1018.3 - 0.0
03/12:30am 22.9 19.5 -0.9 20 10.8 S 7 19 4 10 1018.2 - 0.0
03/12:00am 22.8 20.2 1.2 24 10.2 SW 4 6 2 3 1018.1 - 0.0
 
Date/Time
CST
Temp
°C
App
Temp
°C
Dew
Point
Rel
Hum
%
Delta-T
°C
Wind Press
QNH
hPa
Press
MSL
hPa
Rain
since 9 am
mm
Dir
 
Spd
km/h
Gust
km/h
Spd
kts
Gust
kts
02/11:30pm 22.8 20.4 1.9 25 10.0 S 4 6 2 3 1018.2 - 0.0
02/11:00pm 22.1 20.1 2.3 27 9.5 WSW 2 4 1 2 1018.1 - 0.0
02/10:30pm 23.5 21.1 1.9 24 10.4 SW 4 4 2 2 1017.8 1015.3 0.0
02/10:00pm 23.5 22.2 3.9 28 9.8 CALM 0 4 0 2 1017.8 - 0.0
02/09:30pm 24.3 22.2 4.0 26 10.2 SSW 4 7 2 4 1017.4 - 0.0
02/09:00pm 25.1 22.7 2.2 22 11.2 SW 4 7 2 4 1017.1 - 0.0
02/08:30pm 25.4 23.2 3.2 23 11.1 SSW 4 6 2 3 1016.7 - 0.0
02/08:00pm 25.7 23.8 5.0 26 10.7 WSW 4 6 2 3 1016.4 - 0.0
02/07:30pm 26.8 24.9 5.1 25 11.3 WSW 4 6 2 3 1016.1 1013.6 0.0
02/07:00pm 28.0 26.6 5.5 24 11.9 W 2 6 1 3 1015.8 - 0.0
02/06:30pm 30.2 27.3 1.7 16 14.3 WNW 6 9 3 5 1015.6 - 0.0
02/06:00pm 31.6 28.8 -0.2 13 15.6 NW 4 11 2 6 1015.4 - 0.0
02/05:30pm 32.3 30.3 2.4 15 15.4 SSW 2 6 1 3 1015.2 - 0.0
02/05:00pm 31.4 28.0 -0.7 12 15.6 NW 7 17 4 9 1015.1 - 0.0
02/04:30pm 31.8 28.9 1.2 14 15.4 SSE 6 17 3 9 1015.1 1012.5 0.0
02/04:00pm 32.0 29.1 1.7 14 15.4 E 6 13 3 7 1015.2 - 0.0
02/03:30pm 31.6 28.6 1.1 14 15.3 WSW 6 13 3 7 1015.4 - 0.0
02/03:00pm 31.5 28.9 1.2 14 15.2 WNW 4 9 2 5 1015.6 - 0.0
02/02:30pm 31.7 28.8 1.3 14 15.3 W 6 11 3 6 1015.9 - 0.0
02/02:00pm 30.1 27.6 1.5 16 14.3 NW 4 13 2 7 1016.2 - 0.0
02/01:30pm 30.0 26.7 0.4 15 14.5 ESE 7 17 4 9 1016.7 1014.2 0.0
02/01:00pm 30.2 26.8 -0.3 14 14.8 E 7 17 4 9 1017.1 - 0.0
02/12:30pm 29.9 25.2 -1.6 13 14.9 SSE 13 22 7 12 1017.8 - 0.0
02/12:00pm 29.2 24.9 -1.6 13 14.5 ESE 11 20 6 11 1018.2 - 0.0
02/11:30am 27.5 23.4 -0.2 16 13.2 SE 11 24 6 13 1018.6 - 0.0
02/11:00am 27.3 23.1 -0.7 16 13.2 SE 11 22 6 12 1018.8 - 0.0
02/10:30am 26.5 21.2 -0.9 16 12.8 SE 17 28 9 15 1019.0 1016.5 0.0
02/10:00am 26.2 21.7 -0.4 17 12.5 SE 13 24 7 13 1018.9 - 0.0
02/09:30am 24.8 20.3 -0.3 19 11.7 SE 13 26 7 14 1018.9 - 0.0
02/09:00am 23.5 21.6 4.8 29 9.5 SSW 4 9 2 5 1018.6 - 0.0
02/08:30am 21.5 19.5 6.1 36 7.9 SW 6 13 3 7 1018.5 - 0.0
02/08:00am 19.8 18.0 5.4 39 7.2 SW 4 9 2 5 1018.2 - 0.0
02/07:30am 17.4 15.7 5.7 46 5.8 SW 4 6 2 3 1018.0 1015.5 0.0
02/07:00am 17.1 15.6 6.8 50 5.2 SSW 4 6 2 3 1017.0 - 0.0
02/06:30am 18.2 16.2 6.3 45 6.0 WSW 6 9 3 5 1016.4 - 0.0
02/06:00am 18.7 17.2 7.0 46 6.0 WSW 4 7 2 4 1016.1 - 0.0
02/05:30am 19.9 17.8 5.9 40 7.1 W 6 11 3 6 1015.8 - 0.0
02/05:00am 20.6 18.5 5.9 38 7.5 WSW 6 11 3 6 1015.7 - 0.0
02/04:30am 20.6 18.0 4.4 34 8.0 WSW 7 19 4 10 1015.7 1013.2 0.0
02/04:00am 20.5 18.1 5.1 36 7.7 WSW 7 15 4 8 1015.6 - 0.0
02/03:30am 20.3 18.1 5.4 37 7.5 WSW 6 11 3 6 1015.2 - 0.0
02/03:00am 21.1 19.0 5.8 37 7.8 WSW 6 9 3 5 1015.2 - 0.0
02/02:30am 21.7 19.5 5.3 34 8.3 WSW 6 13 3 7 1015.1 - 0.0
02/02:00am 22.2 20.1 5.9 34 8.4 WSW 6 11 3 6 1015.2 - 0.0
02/01:30am 22.5 20.4 5.8 34 8.6 WSW 6 11 3 6 1015.4 1012.8 0.0
02/01:00am 22.4 20.2 6.4 35 8.3 WSW 7 13 4 7 1015.7 - 0.0
02/12:30am 22.7 20.8 6.9 36 8.3 WSW 6 11 3 6 1015.8 - 0.0
02/12:00am 22.6 20.8 7.3 37 8.1 WSW 6 13 3 7 1015.7 - 0.0
 
Date/Time
CST
Temp
°C
App
Temp
°C
Dew
Point
Rel
Hum
%
Delta-T
°C
Wind Press
QNH
hPa
Press
MSL
hPa
Rain
since 9 am
mm
Dir
 
Spd
km/h
Gust
km/h
Spd
kts
Gust
kts
01/11:30pm 22.6 20.9 7.5 37 8.0 WSW 6 13 3 7 1015.6 - 0.0
01/11:00pm 23.0 21.1 7.6 37 8.2 WSW 7 13 4 7 1015.5 - 0.0
01/10:30pm 23.4 21.7 7.4 35 8.5 WSW 6 11 3 6 1015.5 1012.9 0.0
01/10:00pm 23.6 22.3 7.5 35 8.6 WSW 4 9 2 5 1015.4 - 0.0
01/09:30pm 24.6 22.7 6.9 32 9.4 WSW 6 9 3 5 1015.2 - 0.0
01/09:00pm 25.5 23.7 7.0 30 9.9 W 6 11 3 6 1014.9 - 0.0
01/08:30pm 26.8 24.6 6.1 26 11.0 W 7 13 4 7 1014.5 - 0.0
01/08:00pm 27.2 25.3 6.5 26 11.1 W 6 11 3 6 1014.0 - 0.0
01/07:30pm 28.1 26.0 6.6 25 11.6 W 7 15 4 8 1013.5 1011.0 0.0
01/07:00pm 28.9 26.6 5.6 23 12.4 WNW 7 17 4 9 1013.2 - 0.0

Other Formats:

Comma delimited format used in spreadsheet applications
http://www.bom.gov.au/fwo/IDD60801/IDD60801.94212.axf

JavaScript Object Notation format (JSON) in row-major order
http://www.bom.gov.au/fwo/IDD60801/IDD60801.94212.json